Time;durP1;ratioP1;P1;durP2;ratioP2;P2;SDS_P1;SDS_P2;PMS_P1;PMS_P2;Temp;Humidity;BMP_temperature;BMP_pressure;BME280_temperature;BME280_humidity;BME280_pressure;Samples;Min_cycle;Max_cycle;Signal;HPM_P1;HPM_P2
2023/07/30 00:00:10;;;;;;;;;;;16.70;99.90;;;;;;4993080;28;19922;-42
2023/07/30 00:02:36;;;;;;;;;;;16.70;99.90;;;;;;4994238;28;20345;-42
2023/07/30 00:05:03;;;;;;;;;;;16.70;99.90;;;;;;4991711;28;19981;-43
2023/07/30 00:07:30;;;;;;;;;;;16.70;99.90;;;;;;4992664;28;19926;-42
2023/07/30 00:09:56;;;;;;;;;;;16.60;99.90;;;;;;4996775;28;19922;-43
2023/07/30 00:12:23;;;;;;;;;;;16.60;99.90;;;;;;4976647;28;20433;-43
2023/07/30 00:14:51;;;;;;;;;;;16.60;99.90;;;;;;4978312;28;19926;-42
2023/07/30 00:17:18;;;;;;;;;;;16.60;99.90;;;;;;4994837;28;19922;-43
2023/07/30 00:19:44;;;;;;;;;;;16.50;99.90;;;;;;4977802;28;20052;-42
2023/07/30 00:22:11;;;;;;;;;;;16.50;99.90;;;;;;4979575;28;20286;-42
2023/07/30 00:24:38;;;;;;;;;;;16.50;99.90;;;;;;4994586;28;19922;-43
2023/07/30 00:27:05;;;;;;;;;;;16.50;99.90;;;;;;4994550;28;19925;-43
2023/07/30 00:29:31;;;;;;;;;;;16.50;99.90;;;;;;4994802;28;19922;-43
2023/07/30 00:31:59;;;;;;;;;;;16.50;99.90;;;;;;4976255;28;19929;-42
2023/07/30 00:34:26;;;;;;;;;;;16.40;99.90;;;;;;4996477;28;20459;-43
2023/07/30 00:36:53;;;;;;;;;;;16.40;99.90;;;;;;4977871;28;19922;-43
2023/07/30 00:39:19;;;;;;;;;;;16.40;99.90;;;;;;4977711;28;19971;-43
2023/07/30 00:41:46;;;;;;;;;;;16.40;99.90;;;;;;4977459;28;19926;-42
2023/07/30 00:44:13;;;;;;;;;;;16.30;99.90;;;;;;4994602;28;20293;-43
2023/07/30 00:46:39;;;;;;;;;;;16.30;99.90;;;;;;4996225;28;19926;-43
2023/07/30 00:49:07;;;;;;;;;;;16.30;99.90;;;;;;4994479;28;19928;-43
2023/07/30 00:51:34;;;;;;;;;;;16.30;99.90;;;;;;4977621;28;19925;-43
2023/07/30 00:54:01;;;;;;;;;;;16.30;99.90;;;;;;4977415;28;19929;-43
2023/07/30 00:56:27;;;;;;;;;;;16.20;99.90;;;;;;4994252;28;19928;-43
2023/07/30 00:58:54;;;;;;;;;;;16.20;99.90;;;;;;4995404;28;19922;-42
2023/07/30 01:01:21;;;;;;;;;;;16.20;99.90;;;;;;4995378;28;19977;-42
2023/07/30 01:03:47;;;;;;;;;;;16.20;99.90;;;;;;4994354;28;20317;-42
2023/07/30 01:06:15;;;;;;;;;;;16.10;99.90;;;;;;4977349;28;19984;-43
2023/07/30 01:08:42;;;;;;;;;;;16.20;99.90;;;;;;4994189;28;19929;-43
2023/07/30 01:11:09;;;;;;;;;;;16.10;99.90;;;;;;4976813;28;20370;-43
2023/07/30 01:13:35;;;;;;;;;;;16.10;99.90;;;;;;4964732;28;19922;-43
2023/07/30 01:16:03;;;;;;;;;;;16.10;99.90;;;;;;4977924;28;19922;-43
2023/07/30 01:18:29;;;;;;;;;;;16.10;99.90;;;;;;4974950;28;19976;-42
2023/07/30 01:20:59;;;;;;;;;;;16.10;99.90;;;;;;4975551;28;19922;-43
2023/07/30 01:23:26;;;;;;;;;;;16.10;99.90;;;;;;4991516;28;19984;-43
2023/07/30 01:25:54;;;;;;;;;;;16.00;99.90;;;;;;4995679;28;19922;-42
2023/07/30 01:28:21;;;;;;;;;;;16.00;99.90;;;;;;4993484;28;19944;-43
2023/07/30 01:30:48;;;;;;;;;;;16.00;99.90;;;;;;4977316;28;20010;-43
2023/07/30 01:33:15;;;;;;;;;;;16.00;99.90;;;;;;4977662;28;19926;-42
2023/07/30 01:35:41;;;;;;;;;;;16.00;99.90;;;;;;4994568;28;19926;-43
2023/07/30 01:38:09;;;;;;;;;;;15.90;99.90;;;;;;4995405;28;19979;-43
2023/07/30 01:40:36;;;;;;;;;;;15.90;99.90;;;;;;4976714;28;19969;-42
2023/07/30 01:43:03;;;;;;;;;;;15.90;99.90;;;;;;4976233;28;19925;-43
2023/07/30 01:45:29;;;;;;;;;;;15.90;99.90;;;;;;4993830;28;19921;-43
2023/07/30 01:47:56;;;;;;;;;;;15.80;99.90;;;;;;4993529;28;19933;-43
2023/07/30 01:50:23;;;;;;;;;;;15.80;99.90;;;;;;4995226;28;19921;-43
2023/07/30 01:52:49;;;;;;;;;;;15.80;99.90;;;;;;4993208;28;19922;-42
2023/07/30 01:55:17;;;;;;;;;;;15.80;99.90;;;;;;4975954;28;20345;-42
2023/07/30 01:57:44;;;;;;;;;;;15.80;99.90;;;;;;4961260;28;20392;-43
2023/07/30 02:00:11;;;;;;;;;;;15.80;99.90;;;;;;4988556;28;19922;-43
2023/07/30 02:02:38;;;;;;;;;;;15.80;99.90;;;;;;4995211;28;19921;-43
2023/07/30 02:05:05;;;;;;;;;;;15.70;99.90;;;;;;4994143;28;19921;-42
2023/07/30 02:07:32;;;;;;;;;;;15.70;99.90;;;;;;4991729;28;19992;-42
2023/07/30 02:09:58;;;;;;;;;;;15.70;99.90;;;;;;4975497;28;20400;-44
2023/07/30 02:12:26;;;;;;;;;;;15.70;99.90;;;;;;4975928;28;19984;-43
2023/07/30 02:14:53;;;;;;;;;;;15.70;99.90;;;;;;4993558;28;19926;-42
2023/07/30 02:17:20;;;;;;;;;;;15.70;99.90;;;;;;4977439;28;19980;-43
2023/07/30 02:19:46;;;;;;;;;;;15.60;99.90;;;;;;4993289;28;19937;-43
2023/07/30 02:22:13;;;;;;;;;;;15.60;99.90;;;;;;4991120;28;19929;-42
2023/07/30 02:24:40;;;;;;;;;;;15.60;99.90;;;;;;4970807;28;19933;-43
2023/07/30 02:27:07;;;;;;;;;;;15.60;99.90;;;;;;4970755;28;20428;-43
2023/07/30 02:29:35;;;;;;;;;;;15.60;99.90;;;;;;4994150;28;20312;-43
2023/07/30 02:32:01;;;;;;;;;;;15.50;99.90;;;;;;4973755;28;20015;-43
2023/07/30 02:34:28;;;;;;;;;;;15.50;99.90;;;;;;4994567;28;19922;-43
2023/07/30 02:36:54;;;;;;;;;;;15.50;99.90;;;;;;4975291;28;19921;-42
2023/07/30 02:39:21;;;;;;;;;;;15.50;99.90;;;;;;4989601;28;20386;-43
2023/07/30 02:41:48;;;;;;;;;;;15.50;99.90;;;;;;4975366;28;19929;-42
2023/07/30 02:44:15;;;;;;;;;;;15.40;99.90;;;;;;4992572;28;19984;-43
2023/07/30 02:46:43;;;;;;;;;;;15.40;99.90;;;;;;4994390;28;19925;-43
2023/07/30 02:49:09;;;;;;;;;;;15.40;99.90;;;;;;4975265;28;19921;-43
2023/07/30 02:51:36;;;;;;;;;;;15.40;99.90;;;;;;4992280;28;20363;-43
2023/07/30 02:54:04;;;;;;;;;;;15.30;99.90;;;;;;4992006;28;20321;-43
2023/07/30 02:56:31;;;;;;;;;;;15.30;99.90;;;;;;4972695;28;20008;-43
2023/07/30 02:58:58;;;;;;;;;;;15.30;99.90;;;;;;4976627;28;19921;-43
2023/07/30 03:01:24;;;;;;;;;;;15.30;99.90;;;;;;4975423;28;19922;-43
2023/07/30 03:03:52;;;;;;;;;;;15.20;99.90;;;;;;4969855;28;20334;-43
2023/07/30 03:06:19;;;;;;;;;;;15.20;99.90;;;;;;4963831;28;20050;-43
2023/07/30 03:08:46;;;;;;;;;;;15.20;99.90;;;;;;4980354;28;19977;-43
2023/07/30 03:11:13;;;;;;;;;;;15.20;99.90;;;;;;4992567;28;20016;-43
2023/07/30 03:13:40;;;;;;;;;;;15.20;99.90;;;;;;4958016;28;19926;-43
2023/07/30 03:16:06;;;;;;;;;;;15.10;99.90;;;;;;4971234;28;19929;-43
2023/07/30 03:18:33;;;;;;;;;;;15.10;99.90;;;;;;4975533;28;19921;-43
2023/07/30 03:21:01;;;;;;;;;;;15.10;99.90;;;;;;4975531;28;19926;-43
2023/07/30 03:23:28;;;;;;;;;;;15.10;99.90;;;;;;4975801;28;19922;-43
2023/07/30 03:25:54;;;;;;;;;;;15.10;99.90;;;;;;4992868;28;19929;-43
2023/07/30 03:28:21;;;;;;;;;;;15.10;99.90;;;;;;4992364;28;19969;-42
2023/07/30 03:30:48;;;;;;;;;;;15.10;99.90;;;;;;4975394;28;20389;-43
2023/07/30 03:33:14;;;;;;;;;;;15.10;99.90;;;;;;4992631;28;19921;-43
2023/07/30 03:35:42;;;;;;;;;;;15.10;99.90;;;;;;4991251;28;20393;-42
2023/07/30 03:38:10;;;;;;;;;;;15.10;99.90;;;;;;4972716;28;20017;-43
2023/07/30 03:40:37;;;;;;;;;;;15.00;99.90;;;;;;4988717;28;20452;-43
2023/07/30 03:43:03;;;;;;;;;;;15.00;99.90;;;;;;4975545;28;19922;-43
2023/07/30 03:45:30;;;;;;;;;;;15.00;99.90;;;;;;4974397;28;19934;-43
2023/07/30 03:47:57;;;;;;;;;;;14.90;99.90;;;;;;4992959;28;20370;-43
2023/07/30 03:50:23;;;;;;;;;;;15.00;99.90;;;;;;4974493;28;20301;-43
2023/07/30 03:52:50;;;;;;;;;;;15.00;99.90;;;;;;4992753;28;19925;-43
2023/07/30 03:55:18;;;;;;;;;;;15.00;99.90;;;;;;4974810;28;19921;-43
2023/07/30 03:57:45;;;;;;;;;;;15.00;99.90;;;;;;4991779;28;19925;-42
2023/07/30 04:00:12;;;;;;;;;;;15.00;99.90;;;;;;4992048;28;19921;-43
2023/07/30 04:02:38;;;;;;;;;;;15.00;99.90;;;;;;4974850;28;19930;-43
2023/07/30 04:05:05;;;;;;;;;;;15.00;99.90;;;;;;4992946;28;19928;-42
2023/07/30 04:07:32;;;;;;;;;;;15.00;99.90;;;;;;4974474;28;19964;-42
2023/07/30 04:09:58;;;;;;;;;;;15.00;99.90;;;;;;4974456;28;19929;-43
2023/07/30 04:12:26;;;;;;;;;;;15.00;99.90;;;;;;4992068;28;20341;-43
2023/07/30 04:14:53;;;;;;;;;;;15.00;99.90;;;;;;4991921;28;19929;-43
2023/07/30 04:17:20;;;;;;;;;;;15.00;99.90;;;;;;4976098;28;19937;-43
2023/07/30 04:19:46;;;;;;;;;;;15.00;99.90;;;;;;4991494;28;19969;-43
2023/07/30 04:22:13;;;;;;;;;;;15.00;99.90;;;;;;4991354;28;19922;-43
2023/07/30 04:24:40;;;;;;;;;;;15.00;99.90;;;;;;4991659;28;20290;-43
2023/07/30 04:27:06;;;;;;;;;;;15.00;99.90;;;;;;4991493;28;19921;-43
2023/07/30 04:29:34;;;;;;;;;;;15.00;99.90;;;;;;4992900;28;19968;-43
2023/07/30 04:32:01;;;;;;;;;;;15.00;99.90;;;;;;4992214;28;19937;-43
2023/07/30 04:34:28;;;;;;;;;;;15.00;99.90;;;;;;4961407;28;19921;-43
2023/07/30 04:36:54;;;;;;;;;;;15.10;99.90;;;;;;4965465;28;20362;-43
2023/07/30 04:39:21;;;;;;;;;;;15.10;99.90;;;;;;4991383;28;20361;-43
2023/07/30 04:41:48;;;;;;;;;;;15.10;99.90;;;;;;4974937;28;19949;-42
2023/07/30 04:44:15;;;;;;;;;;;15.20;99.90;;;;;;4992593;28;19921;-42
2023/07/30 04:46:43;;;;;;;;;;;15.20;99.90;;;;;;4993837;28;20285;-43
2023/07/30 04:49:09;;;;;;;;;;;15.30;99.90;;;;;;4978142;28;19968;-42
2023/07/30 04:51:37;;;;;;;;;;;15.30;99.90;;;;;;4996216;28;20289;-43
2023/07/30 04:54:04;;;;;;;;;;;15.40;99.90;;;;;;4978327;28;20366;-43
2023/07/30 04:56:30;;;;;;;;;;;15.40;99.90;;;;;;4994989;28;19926;-43
2023/07/30 04:58:57;;;;;;;;;;;15.50;99.90;;;;;;4994989;28;19938;-43
2023/07/30 05:01:24;;;;;;;;;;;15.50;99.90;;;;;;4979049;28;19969;-43
2023/07/30 05:03:52;;;;;;;;;;;15.60;99.90;;;;;;4977706;28;20020;-43
2023/07/30 05:06:19;;;;;;;;;;;15.60;99.90;;;;;;4977639;28;19976;-44
2023/07/30 05:08:46;;;;;;;;;;;15.60;99.90;;;;;;4977420;28;19926;-43
2023/07/30 05:11:12;;;;;;;;;;;15.70;99.90;;;;;;4994667;28;19922;-43
2023/07/30 05:13:39;;;;;;;;;;;15.70;99.90;;;;;;4979037;28;19965;-43
2023/07/30 05:16:06;;;;;;;;;;;15.80;99.90;;;;;;4994353;28;20345;-42
2023/07/30 05:18:32;;;;;;;;;;;15.80;99.90;;;;;;4994523;28;20204;-43
2023/07/30 05:21:00;;;;;;;;;;;15.80;99.90;;;;;;4969760;28;19922;-43
2023/07/30 05:23:27;;;;;;;;;;;15.90;99.90;;;;;;4979766;28;19956;-42
2023/07/30 05:25:54;;;;;;;;;;;15.90;99.90;;;;;;4995663;28;19961;-43
2023/07/30 05:28:20;;;;;;;;;;;16.00;99.90;;;;;;4977306;28;19922;-43
2023/07/30 05:30:47;;;;;;;;;;;16.00;99.90;;;;;;4994113;28;19921;-43
2023/07/30 05:33:14;;;;;;;;;;;16.00;99.90;;;;;;4977643;28;19921;-44
2023/07/30 05:35:40;;;;;;;;;;;16.10;99.90;;;;;;4995045;28;19992;-43
2023/07/30 05:38:08;;;;;;;;;;;16.10;99.90;;;;;;4995288;28;20385;-43
2023/07/30 05:40:36;;;;;;;;;;;16.20;99.90;;;;;;4989547;28;19947;-42
2023/07/30 05:43:02;;;;;;;;;;;16.30;99.90;;;;;;4994775;28;19925;-43
2023/07/30 05:45:29;;;;;;;;;;;16.30;99.90;;;;;;4976814;28;19976;-43
2023/07/30 05:47:56;;;;;;;;;;;16.40;99.90;;;;;;4993911;28;19921;-43
2023/07/30 05:50:23;;;;;;;;;;;16.40;99.90;;;;;;4993548;28;19991;-43
2023/07/30 05:52:49;;;;;;;;;;;16.50;99.90;;;;;;4994653;28;19976;-43
2023/07/30 05:55:17;;;;;;;;;;;16.50;99.90;;;;;;4974579;28;20046;-43
2023/07/30 05:57:44;;;;;;;;;;;16.60;99.90;;;;;;4989527;28;19922;-44
2023/07/30 06:00:11;;;;;;;;;;;16.60;99.90;;;;;;4977181;28;20344;-43
2023/07/30 06:02:38;;;;;;;;;;;16.70;99.90;;;;;;4976727;28;19921;-43
2023/07/30 06:05:05;;;;;;;;;;;16.70;99.90;;;;;;4994634;28;20362;-44
2023/07/30 06:07:31;;;;;;;;;;;16.70;99.90;;;;;;4993239;28;20350;-43
2023/07/30 06:09:58;;;;;;;;;;;16.80;99.90;;;;;;4977733;28;19926;-44
2023/07/30 06:12:26;;;;;;;;;;;16.80;99.90;;;;;;4977702;28;19972;-43
2023/07/30 06:14:53;;;;;;;;;;;16.90;99.90;;;;;;4990543;28;20301;-43
2023/07/30 06:17:19;;;;;;;;;;;16.90;99.90;;;;;;4991574;28;20368;-44
2023/07/30 06:19:46;;;;;;;;;;;17.00;99.90;;;;;;4976752;28;19929;-43
2023/07/30 06:22:13;;;;;;;;;;;17.00;99.90;;;;;;4994957;28;19932;-43
2023/07/30 06:24:40;;;;;;;;;;;17.00;99.90;;;;;;4975582;28;19925;-42
2023/07/30 06:27:06;;;;;;;;;;;17.10;99.90;;;;;;4962308;28;19969;-43
2023/07/30 06:29:34;;;;;;;;;;;17.10;99.90;;;;;;4974978;28;19926;-43
2023/07/30 06:32:01;;;;;;;;;;;17.10;99.90;;;;;;4974988;28;19926;-44
2023/07/30 06:34:28;;;;;;;;;;;17.20;99.90;;;;;;4974575;28;19922;-43
2023/07/30 06:36:55;;;;;;;;;;;17.20;99.90;;;;;;4968723;28;19979;-43
2023/07/30 06:39:22;;;;;;;;;;;17.20;99.90;;;;;;4994418;28;19972;-43
2023/07/30 06:41:48;;;;;;;;;;;17.20;99.90;;;;;;4977097;28;19922;-43
2023/07/30 06:44:15;;;;;;;;;;;17.30;99.90;;;;;;4977071;28;19929;-43
2023/07/30 06:46:43;;;;;;;;;;;17.30;99.90;;;;;;4986774;28;20393;-44
2023/07/30 06:49:10;;;;;;;;;;;17.30;99.90;;;;;;4993402;28;19925;-43
2023/07/30 06:51:37;;;;;;;;;;;17.40;99.90;;;;;;4976873;28;19992;-44
2023/07/30 06:54:03;;;;;;;;;;;17.40;99.90;;;;;;4976875;28;20341;-43
2023/07/30 06:56:30;;;;;;;;;;;17.50;99.90;;;;;;4976395;28;19922;-43
2023/07/30 06:58:57;;;;;;;;;;;17.60;99.90;;;;;;4993986;28;19968;-43
2023/07/30 07:01:23;;;;;;;;;;;17.60;99.90;;;;;;4975501;28;19930;-43
2023/07/30 07:03:51;;;;;;;;;;;17.70;99.90;;;;;;4975971;28;19922;-44
2023/07/30 07:06:18;;;;;;;;;;;17.80;99.90;;;;;;4992495;28;19984;-44
2023/07/30 07:08:45;;;;;;;;;;;17.80;99.90;;;;;;4993759;28;19925;-43
2023/07/30 07:11:12;;;;;;;;;;;17.90;99.90;;;;;;4993775;28;19925;-43
2023/07/30 07:13:39;;;;;;;;;;;18.00;99.90;;;;;;4976161;28;19980;-43
2023/07/30 07:16:06;;;;;;;;;;;18.10;99.90;;;;;;4993345;28;19922;-43
2023/07/30 07:18:32;;;;;;;;;;;18.20;99.90;;;;;;4993589;28;19995;-43
2023/07/30 07:21:00;;;;;;;;;;;18.30;99.90;;;;;;4992809;28;20386;-43
2023/07/30 07:23:27;;;;;;;;;;;18.40;99.90;;;;;;4993608;28;19936;-43
2023/07/30 07:25:54;;;;;;;;;;;18.50;99.90;;;;;;4992857;28;19921;-44
2023/07/30 07:28:20;;;;;;;;;;;18.60;99.90;;;;;;4992322;28;19921;-45
2023/07/30 07:30:47;;;;;;;;;;;18.70;99.90;;;;;;4990499;28;19964;-43
2023/07/30 07:33:14;;;;;;;;;;;18.80;99.90;;;;;;4993225;28;19965;-44
2023/07/30 07:35:41;;;;;;;;;;;19.00;99.90;;;;;;4993146;28;19926;-43
2023/07/30 07:38:09;;;;;;;;;;;19.20;99.90;;;;;;4974246;28;19928;-44
2023/07/30 07:40:39;;;;;;;;;;;19.30;99.90;;;;;;4976294;28;19925;-43
2023/07/30 07:43:05;;;;;;;;;;;19.30;99.90;;;;;;4993194;28;19921;-44
2023/07/30 07:45:32;;;;;;;;;;;19.30;99.90;;;;;;4992853;28;19976;-44
2023/07/30 07:47:59;;;;;;;;;;;19.30;99.90;;;;;;4975878;28;19922;-43
2023/07/30 07:50:25;;;;;;;;;;;19.30;99.90;;;;;;4990218;28;20336;-42
2023/07/30 07:52:52;;;;;;;;;;;19.40;99.90;;;;;;4993308;28;19926;-43
2023/07/30 07:55:20;;;;;;;;;;;19.50;99.90;;;;;;4976036;28;19922;-43
2023/07/30 07:57:47;;;;;;;;;;;19.60;99.90;;;;;;4991796;28;20158;-44
2023/07/30 08:00:13;;;;;;;;;;;19.80;99.90;;;;;;4993009;28;20020;-43
2023/07/30 08:02:42;;;;;;;;;;;19.90;99.90;;;;;;4974982;28;20448;-43
2023/07/30 08:05:09;;;;;;;;;;;20.10;99.90;;;;;;4993063;28;19979;-43
2023/07/30 08:07:35;;;;;;;;;;;20.20;99.90;;;;;;4976116;28;20385;-44
2023/07/30 08:10:02;;;;;;;;;;;20.30;99.90;;;;;;4974086;28;19933;-43
2023/07/30 08:12:32;;;;;;;;;;;20.40;99.90;;;;;;4991800;28;20340;-43
2023/07/30 08:14:59;;;;;;;;;;;20.50;99.90;;;;;;4992824;28;19922;-43
2023/07/30 08:17:25;;;;;;;;;;;20.40;99.90;;;;;;4991636;28;19921;-43
2023/07/30 08:19:52;;;;;;;;;;;20.30;99.90;;;;;;4974086;28;19938;-43
2023/07/30 08:22:19;;;;;;;;;;;20.20;99.90;;;;;;4995468;28;20475;-43
2023/07/30 08:24:45;;;;;;;;;;;20.10;99.90;;;;;;4992598;28;19926;-44
2023/07/30 08:27:12;;;;;;;;;;;20.10;99.90;;;;;;4963990;28;19990;-43
2023/07/30 08:29:40;;;;;;;;;;;20.00;99.90;;;;;;4993850;28;20425;-43
2023/07/30 08:32:07;;;;;;;;;;;20.00;99.90;;;;;;4978547;28;19930;-43
2023/07/30 08:34:33;;;;;;;;;;;20.00;99.90;;;;;;4996559;28;19928;-43
2023/07/30 08:37:00;;;;;;;;;;;19.90;99.90;;;;;;4995864;28;19925;-43
2023/07/30 08:39:27;;;;;;;;;;;19.90;99.90;;;;;;4996771;28;19922;-43
2023/07/30 08:41:53;;;;;;;;;;;19.80;99.90;;;;;;4996573;28;19928;-43
2023/07/30 08:44:20;;;;;;;;;;;19.70;99.90;;;;;;4995227;28;20283;-43
2023/07/30 08:46:48;;;;;;;;;;;19.60;99.90;;;;;;4996295;28;19922;-43
2023/07/30 08:49:15;;;;;;;;;;;19.50;99.90;;;;;;4996279;28;19926;-44
2023/07/30 08:51:42;;;;;;;;;;;19.30;99.90;;;;;;4996424;28;20286;-43
2023/07/30 08:54:08;;;;;;;;;;;19.10;99.90;;;;;;4995641;28;19925;-43
2023/07/30 08:56:35;;;;;;;;;;;18.90;99.90;;;;;;4978768;28;19925;-44
2023/07/30 08:59:02;;;;;;;;;;;18.80;99.90;;;;;;4979013;28;19984;-44
2023/07/30 09:01:31;;;;;;;;;;;18.80;99.90;;;;;;4978789;28;19926;-44
2023/07/30 09:04:00;;;;;;;;;;;18.70;99.90;;;;;;4995483;28;19928;-44
2023/07/30 09:06:26;;;;;;;;;;;18.60;99.90;;;;;;4977937;28;20358;-43
2023/07/30 09:08:53;;;;;;;;;;;18.60;99.90;;;;;;4978649;28;20383;-43
2023/07/30 09:11:20;;;;;;;;;;;18.60;99.90;;;;;;4978801;28;19922;-44
2023/07/30 09:13:47;;;;;;;;;;;18.60;99.90;;;;;;4995760;28;19964;-43
2023/07/30 09:16:13;;;;;;;;;;;18.70;99.90;;;;;;4994563;28;20027;-43
2023/07/30 09:18:41;;;;;;;;;;;18.70;99.90;;;;;;4978144;28;19945;-43
2023/07/30 09:21:09;;;;;;;;;;;18.70;99.90;;;;;;4995916;28;19969;-43
2023/07/30 09:23:40;;;;;;;;;;;18.80;99.90;;;;;;4978258;28;19967;-43
2023/07/30 09:26:06;;;;;;;;;;;18.80;99.90;;;;;;4976921;28;19928;-41
2023/07/30 09:28:33;;;;;;;;;;;18.80;99.90;;;;;;4995547;28;19925;-43
2023/07/30 09:31:03;;;;;;;;;;;18.90;99.90;;;;;;4995596;28;19969;-42
2023/07/30 09:33:30;;;;;;;;;;;19.00;99.90;;;;;;4994537;28;19921;-42
2023/07/30 09:35:56;;;;;;;;;;;18.90;99.90;;;;;;4977568;28;19948;-43
2023/07/30 09:38:25;;;;;;;;;;;18.80;99.90;;;;;;4977051;28;19987;-42
2023/07/30 09:40:52;;;;;;;;;;;18.60;99.90;;;;;;4993915;28;19964;-43
2023/07/30 09:43:19;;;;;;;;;;;18.30;99.90;;;;;;4978122;28;19921;-41
2023/07/30 09:45:46;;;;;;;;;;;18.10;99.90;;;;;;4977181;28;19921;-42
2023/07/30 09:48:12;;;;;;;;;;;18.00;99.90;;;;;;4995472;28;19972;-41
2023/07/30 09:50:39;;;;;;;;;;;17.90;99.90;;;;;;4993230;28;19961;-42
2023/07/30 09:53:06;;;;;;;;;;;17.80;99.90;;;;;;4978131;28;19994;-43
2023/07/30 09:55:34;;;;;;;;;;;17.80;99.90;;;;;;4989021;28;19984;-43
2023/07/30 09:58:00;;;;;;;;;;;17.80;99.90;;;;;;4977735;28;20242;-43
2023/07/30 10:00:27;;;;;;;;;;;17.80;99.90;;;;;;4993751;28;20408;-43
2023/07/30 10:02:54;;;;;;;;;;;17.80;99.90;;;;;;4995249;28;19928;-43
2023/07/30 10:05:21;;;;;;;;;;;17.80;99.90;;;;;;4993117;28;19967;-43
2023/07/30 10:07:48;;;;;;;;;;;17.80;99.90;;;;;;4987045;28;19984;-43
2023/07/30 10:10:15;;;;;;;;;;;17.80;99.90;;;;;;4975219;28;19956;-43
2023/07/30 10:12:43;;;;;;;;;;;17.90;99.90;;;;;;4975489;28;19967;-43
2023/07/30 10:15:10;;;;;;;;;;;17.90;99.90;;;;;;4991543;28;19929;-43
2023/07/30 10:17:37;;;;;;;;;;;18.00;99.90;;;;;;4994865;28;19922;-42
2023/07/30 10:20:18;;;;;;;;;;;18.10;99.90;;;;;;4994797;28;19988;-43
2023/07/30 10:22:46;;;;;;;;;;;18.20;99.90;;;;;;4995112;28;19961;-42
2023/07/30 10:25:13;;;;;;;;;;;18.40;99.90;;;;;;4994278;28;19925;-43
2023/07/30 10:27:40;;;;;;;;;;;18.70;99.90;;;;;;4975117;28;19968;-42
2023/07/30 10:30:11;;;;;;;;;;;18.90;99.90;;;;;;4994256;28;19922;-43
2023/07/30 10:32:41;;;;;;;;;;;19.20;99.90;;;;;;4977415;28;20410;-44
2023/07/30 10:35:08;;;;;;;;;;;19.30;99.90;;;;;;4993734;28;19929;-43
2023/07/30 10:37:35;;;;;;;;;;;19.50;99.90;;;;;;4976249;28;19968;-44
2023/07/30 10:40:01;;;;;;;;;;;19.60;99.90;;;;;;4994032;28;20425;-44
2023/07/30 10:42:34;;;;;;;;;;;19.80;99.90;;;;;;4991907;28;19925;-43
2023/07/30 10:45:00;;;;;;;;;;;19.90;99.90;;;;;;4993879;28;20058;-44
2023/07/30 10:47:29;;;;;;;;;;;20.00;99.90;;;;;;4970962;28;19922;-43
2023/07/30 10:49:56;;;;;;;;;;;20.00;99.90;;;;;;4957144;28;19976;-43
2023/07/30 10:52:24;;;;;;;;;;;20.10;99.90;;;;;;4952492;28;19922;-43
2023/07/30 10:54:51;;;;;;;;;;;20.30;99.90;;;;;;4938108;29;20008;-44
2023/07/30 10:57:18;;;;;;;;;;;20.40;99.90;;;;;;4957953;28;19929;-43
2023/07/30 10:59:45;;;;;;;;;;;20.60;99.90;;;;;;4956428;28;20393;-44
2023/07/30 11:02:12;;;;;;;;;;;20.70;99.90;;;;;;4974364;28;19922;-42
2023/07/30 11:04:40;;;;;;;;;;;20.70;99.90;;;;;;4970966;28;20375;-43
2023/07/30 11:07:06;;;;;;;;;;;20.80;99.90;;;;;;4974417;28;20294;-43
2023/07/30 11:09:33;;;;;;;;;;;20.90;99.90;;;;;;4973955;28;20432;-44
2023/07/30 11:12:00;;;;;;;;;;;21.00;99.90;;;;;;4973334;28;19926;-43
2023/07/30 11:14:27;;;;;;;;;;;21.20;99.90;;;;;;4973143;28;19977;-43
2023/07/30 11:16:54;;;;;;;;;;;21.40;99.90;;;;;;4955482;28;19944;-44
2023/07/30 11:19:21;;;;;;;;;;;21.60;99.90;;;;;;4974288;28;19922;-44
2023/07/30 11:21:49;;;;;;;;;;;21.70;99.90;;;;;;4956731;28;19922;-44
2023/07/30 11:24:16;;;;;;;;;;;21.70;99.90;;;;;;4956953;28;20342;-43
2023/07/30 11:26:42;;;;;;;;;;;21.80;99.90;;;;;;4972977;28;19922;-44
2023/07/30 11:29:16;;;;;;;;;;;21.90;99.90;;;;;;4955808;28;19968;-43
2023/07/30 11:31:43;;;;;;;;;;;22.00;99.90;;;;;;4972633;28;19969;-43
2023/07/30 11:34:09;;;;;;;;;;;22.20;99.90;;;;;;4974058;28;19960;-44
2023/07/30 11:36:36;;;;;;;;;;;22.40;99.90;;;;;;4971104;28;19976;-42
2023/07/30 11:39:04;;;;;;;;;;;22.50;99.90;;;;;;4972671;28;20019;-43
2023/07/30 11:41:31;;;;;;;;;;;22.50;99.90;;;;;;4973032;28;19965;-44
2023/07/30 11:43:58;;;;;;;;;;;22.50;99.90;;;;;;4973994;28;20412;-44
2023/07/30 11:46:24;;;;;;;;;;;22.40;99.90;;;;;;4980552;28;19953;-43
2023/07/30 11:48:52;;;;;;;;;;;22.40;99.90;;;;;;4987033;28;19929;-44
2023/07/30 11:51:19;;;;;;;;;;;22.50;99.90;;;;;;4970994;28;20290;-43
2023/07/30 11:53:46;;;;;;;;;;;22.50;99.90;;;;;;4988645;28;20313;-43
2023/07/30 11:56:17;;;;;;;;;;;22.50;99.90;;;;;;4975511;28;20397;-43
2023/07/30 11:58:44;;;;;;;;;;;22.40;99.90;;;;;;4993483;28;19961;-44
2023/07/30 12:01:10;;;;;;;;;;;22.40;99.90;;;;;;4993049;28;19976;-44
2023/07/30 12:03:38;;;;;;;;;;;22.50;99.90;;;;;;4974411;28;19922;-43
2023/07/30 12:06:05;;;;;;;;;;;22.50;99.90;;;;;;4990825;28;20294;-43
2023/07/30 12:08:32;;;;;;;;;;;22.30;99.90;;;;;;4992869;28;19929;-43
2023/07/30 12:11:02;;;;;;;;;;;22.20;99.90;;;;;;4991807;28;19969;-43
2023/07/30 12:13:31;;;;;;;;;;;22.10;99.90;;;;;;4993101;28;19925;-43
2023/07/30 12:15:58;;;;;;;;;;;22.00;99.90;;;;;;4974025;28;19921;-43
2023/07/30 12:18:25;;;;;;;;;;;21.90;99.90;;;;;;4975475;28;19925;-43
2023/07/30 12:20:51;;;;;;;;;;;21.80;99.90;;;;;;4975613;28;19967;-43
2023/07/30 12:23:18;;;;;;;;;;;21.80;99.90;;;;;;4975730;28;19957;-44
2023/07/30 12:25:45;;;;;;;;;;;21.80;99.90;;;;;;4991436;28;20000;-43
2023/07/30 12:28:12;;;;;;;;;;;21.80;99.90;;;;;;4991242;28;20398;-43
2023/07/30 12:30:40;;;;;;;;;;;21.80;99.90;;;;;;4974169;28;19926;-44
2023/07/30 12:33:07;;;;;;;;;;;21.90;99.90;;;;;;4992949;28;20284;-44
2023/07/30 12:35:33;;;;;;;;;;;22.00;99.90;;;;;;4974901;28;19929;-43
2023/07/30 12:38:00;;;;;;;;;;;22.10;99.90;;;;;;4991225;28;19926;-44
2023/07/30 12:40:29;;;;;;;;;;;22.10;99.90;;;;;;4991254;28;19925;-44
2023/07/30 12:42:56;;;;;;;;;;;22.10;99.90;;;;;;4974377;28;19930;-43
2023/07/30 12:45:22;;;;;;;;;;;22.00;99.90;;;;;;4991226;28;20014;-43
2023/07/30 12:47:50;;;;;;;;;;;21.60;99.90;;;;;;4992002;28;19925;-43
2023/07/30 12:50:17;;;;;;;;;;;21.30;99.90;;;;;;4991031;28;19967;-43
2023/07/30 12:52:44;;;;;;;;;;;21.10;99.90;;;;;;4992523;28;19957;-44
2023/07/30 12:55:10;;;;;;;;;;;20.80;99.90;;;;;;4960984;28;19936;-43
2023/07/30 12:57:37;;;;;;;;;;;20.60;99.90;;;;;;4965357;28;19968;-43
2023/07/30 13:00:05;;;;;;;;;;;20.40;99.90;;;;;;4990688;28;20395;-42
2023/07/30 13:02:33;;;;;;;;;;;20.30;99.90;;;;;;4992536;28;19922;-43
2023/07/30 13:05:01;;;;;;;;;;;20.20;99.90;;;;;;4973953;28;19968;-42
2023/07/30 13:07:28;;;;;;;;;;;20.10;99.90;;;;;;4993090;28;19922;-42
2023/07/30 13:10:02;;;;;;;;;;;20.10;99.90;;;;;;4978470;28;19967;-43
2023/07/30 13:12:29;;;;;;;;;;;20.20;99.90;;;;;;4978913;28;19976;-42
2023/07/30 13:14:56;;;;;;;;;;;20.30;99.90;;;;;;4983147;28;20016;-43
2023/07/30 13:17:22;;;;;;;;;;;20.40;99.90;;;;;;4995941;28;19945;-42
2023/07/30 13:19:49;;;;;;;;;;;20.40;99.90;;;;;;4994976;28;20379;-42
2023/07/30 13:22:17;;;;;;;;;;;20.40;99.90;;;;;;4995415;28;19980;-43
2023/07/30 13:24:44;;;;;;;;;;;20.30;99.90;;;;;;4995890;28;19959;-44
2023/07/30 13:27:10;;;;;;;;;;;20.10;99.90;;;;;;4995753;28;19921;-43
2023/07/30 13:29:37;;;;;;;;;;;20.00;99.90;;;;;;4977217;28;19956;-44
2023/07/30 13:32:04;;;;;;;;;;;19.90;99.90;;;;;;4995851;28;19994;-43
2023/07/30 13:34:31;;;;;;;;;;;19.90;99.90;;;;;;4994646;28;19922;-43
2023/07/30 13:36:58;;;;;;;;;;;19.80;99.90;;;;;;4993338;28;19984;-43
2023/07/30 13:39:26;;;;;;;;;;;19.90;99.90;;;;;;4994118;28;19944;-43
2023/07/30 13:41:53;;;;;;;;;;;20.10;99.90;;;;;;4994886;28;19929;-42
2023/07/30 13:44:20;;;;;;;;;;;20.20;99.90;;;;;;4994206;28;20358;-42
2023/07/30 13:46:47;;;;;;;;;;;20.40;99.90;;;;;;4976614;28;19950;-42
2023/07/30 13:49:13;;;;;;;;;;;20.70;99.90;;;;;;4995063;28;19928;-43
2023/07/30 13:51:40;;;;;;;;;;;20.90;99.90;;;;;;4977105;28;20002;-43
2023/07/30 13:54:07;;;;;;;;;;;21.00;99.90;;;;;;4977386;28;20510;-43
2023/07/30 13:56:37;;;;;;;;;;;21.10;99.90;;;;;;4976857;28;19999;-44
2023/07/30 13:59:04;;;;;;;;;;;21.10;99.90;;;;;;4993739;28;19921;-42
2023/07/30 14:01:30;;;;;;;;;;;21.00;99.90;;;;;;4976634;28;20012;-42
2023/07/30 14:03:57;;;;;;;;;;;20.90;99.90;;;;;;4977372;28;19922;-43
2023/07/30 14:06:24;;;;;;;;;;;20.80;99.90;;;;;;4976909;28;19969;-43
2023/07/30 14:08:51;;;;;;;;;;;20.70;99.90;;;;;;4991284;28;19926;-43
2023/07/30 14:11:18;;;;;;;;;;;20.60;99.90;;;;;;4974283;28;20364;-43
2023/07/30 14:13:46;;;;;;;;;;;20.50;99.90;;;;;;4994906;28;19959;-43